Latest Coastal Weather Observations for Whyalla

IDS60701

Issued at 8:41 pm CDT Sunday 25 January 2015 (issued every 10 minutes, with the page automatically refreshed every 10 minutes)

About coastal observations | Map of coastal stations | Coastal observations for SA | Marine services | Other Formats
Station Details ID: 018120 Name: WHYALLA AERO Lat: -33.05 Lon: 137.52 Height: 6.5 m
Data from the previous 72 hours. | See also: Recent months at Whyalla
Date/Time
CDT
Temp

°C
Wind Pressure Rain
since 9am
mm
Weather Cloud Vis
km
Sea
Height
m
Swell
Dir
 
Speed
knots
Gust
knots
hPa Trend Height
m
Period
s
Dir
25/08:30pm 18.5 SSW 16 21 1014.6 - 0.0 - - 10 - - - -
25/08:00pm 19.1 SSW 18 24 1014.3 - 0.0 - - 10 - - - -
25/07:30pm 19.6 SSW 19 24 1014.0 - 0.0 - - 10 - - - -
25/07:00pm 19.7 SSW 20 26 1013.7 - 0.0 - - 10 - - - -
25/06:30pm 20.3 SSW 22 27 1013.7 - 0.0 - - 10 - - - -
25/06:00pm 20.6 SSW 21 27 1013.7 - 0.0 - - 10 - - - -
25/05:30pm 21.2 SSW 20 27 1013.8 - 0.0 - - 10 - - - -
25/05:00pm 21.0 SSW 22 29 1013.4 - 0.0 - - 10 - - - -
25/04:30pm 21.7 S 21 26 1013.4 - 0.0 - - 10 - - - -
25/04:00pm 21.5 S 18 24 1013.7 - 0.0 - - 10 - - - -
25/03:30pm 21.3 S 18 27 1013.7 - 0.0 - - 10 - - - -
25/03:00pm 20.7 SSE 19 25 1013.8 - 0.0 - - 10 - - - -
25/02:30pm 21.2 S 19 28 1014.0 - 0.0 - - 10 - - - -
25/02:26pm 21.6 SSE 18 28 1013.9 - 0.0 - - 10 - - - -
25/02:00pm 21.3 SSE 19 26 1013.9 - 0.0 - - 10 - - - -
25/01:30pm 22.2 S 18 25 1014.0 - 0.0 - - 10 - - - -
25/01:00pm 21.0 S 19 26 1013.9 - 0.0 - - 10 - - - -
25/12:30pm 21.5 S 19 25 1014.1 - 0.0 - - 10 - - - -
25/12:04pm 20.9 SSE 16 26 1014.0 - 0.0 - - 10 - - - -
25/12:00pm 20.9 S 16 22 1014.1 - 0.0 - - 10 - - - -
25/11:30am 20.7 SSE 14 19 1013.7 - 0.0 - - 10 - - - -
25/11:00am 20.1 SSE 14 20 1013.9 - 0.0 - - 10 - - - -
25/10:30am 19.8 S 15 20 1013.6 - 0.0 - - 10 - - - -
25/10:00am 19.9 SSW 17 22 1013.4 - 0.0 - - 10 - - - -
25/09:30am 19.6 SSW 15 20 1013.4 - 0.0 - - 10 - - - -
25/09:00am 19.2 SSW 15 20 1013.1 - 0.0 - - 10 - - - -
25/08:30am 18.4 SW 14 19 1013.2 - 0.0 - - 10 - - - -
25/08:00am 17.2 SW 13 17 1013.0 - 0.0 - - 10 - - - -
25/07:30am 15.9 SW 10 14 1012.7 - 0.0 - - 10 - - - -
25/07:00am 15.1 WSW 8 10 1012.1 - 0.0 - Partly cloudy 10 - - - -
25/06:30am 15.4 WSW 9 11 1011.7 - 0.0 - - 10 - - - -
25/06:00am 15.6 SW 8 12 1011.1 - 0.0 - - 10 - - - -
25/05:30am 15.9 WSW 8 11 1010.7 - 0.0 - Partly cloudy 10 - - - -
25/05:00am 16.1 WSW 6 8 1010.6 - 0.0 - - 10 - - - -
25/04:30am 16.6 SW 7 12 1010.5 - 0.0 - Partly cloudy 10 - - - -
25/04:00am 17.2 SW 10 14 1010.3 - 0.0 - Partly cloudy 10 - - - -
25/03:30am 17.4 SW 10 13 1010.5 - 0.0 - - 10 - - - -
25/03:00am 17.3 SW 9 11 1010.3 - 0.0 - Partly cloudy 10 - - - -
25/02:30am 17.7 SW 11 14 1010.1 - 0.0 - - 10 - - - -
25/02:00am 17.6 SW 9 14 1010.2 - 0.0 - - 10 - - - -
25/01:30am 17.9 SW 9 12 1010.4 - 0.0 - - 10 - - - -
25/01:00am 18.3 SW 7 9 1010.6 - 0.0 - - 10 - - - -
25/12:30am 19.3 SW 13 15 1010.6 - 0.0 - - 10 - - - -
25/12:00am 19.8 SW 12 17 1010.4 - 0.0 - - 10 - - - -
 
Date/Time
CDT
Temp

°C
Wind Pressure Rain
since 9am
mm
Weather Cloud Vis
km
Sea
Height
m
Swell
Dir
 
Speed
knots
Gust
knots
hPa Trend Height
m
Period
s
Dir
24/11:30pm 20.3 SW 11 17 1010.1 - 0.0 - - 10 - - - -
24/11:00pm 20.9 SW 11 16 1010.2 - 0.0 - - 10 - - - -
24/10:30pm 21.5 SW 15 22 1009.8 - 0.0 - - 10 - - - -
24/10:00pm 21.7 SW 11 16 1009.4 - 0.0 - - 10 - - - -
24/09:30pm 22.4 S 10 18 1008.8 - 0.0 - - 10 - - - -
24/09:00pm 21.8 S 10 15 1008.5 - 0.0 - - 10 - - - -
24/08:30pm 21.8 S 14 19 1008.2 - 0.0 - - 10 - - - -
24/08:00pm 22.4 S 15 21 1007.7 - 0.0 - - 10 - - - -
24/07:30pm 22.6 SSE 13 17 1007.5 - 0.0 - - 10 - - - -
24/07:00pm 22.8 S 16 21 1007.1 - 0.0 - - 10 - - - -
24/06:30pm 23.1 S 15 20 1006.9 - 0.0 - - 10 - - - -
24/06:00pm 23.0 S 15 20 1006.9 - 0.0 - - 10 - - - -
24/05:30pm 23.2 SSE 13 18 1006.8 - 0.0 - - 10 - - - -
24/05:00pm 22.7 SSE 11 17 1006.8 - 0.0 - - 10 - - - -
24/04:30pm 23.2 SE 11 16 1006.9 - 0.0 - - 10 - - - -
24/04:00pm 22.6 SE 11 18 1007.2 - 0.0 - - 10 - - - -
24/03:30pm 23.1 SE 12 17 1007.2 - 0.0 - - 10 - - - -
24/03:00pm 22.7 SE 11 16 1007.2 - 0.0 - - 10 - - - -
24/02:30pm 23.2 SSE 11 15 1007.4 - 0.0 - - 10 - - - -
24/02:00pm 22.8 SE 10 16 1007.6 - 0.0 - - 10 - - - -
24/01:30pm 22.7 SE 9 13 1007.9 - 0.0 - - 10 - - - -
24/01:00pm 23.0 SE 9 13 1007.8 - 0.0 - - 10 - - - -
24/12:30pm 22.3 SSE 8 13 1008.2 - 0.0 - - 10 - - - -
24/12:00pm 22.2 SE 9 13 1008.4 - 0.0 - - 10 - - - -
24/11:30am 21.8 SSE 11 15 1008.7 - 0.0 - - 10 - - - -
24/11:00am 22.2 SSE 10 13 1008.9 - 0.0 - - 10 - - - -
24/10:30am 21.5 S 8 13 1008.9 - 0.0 - - 10 - - - -
24/10:00am 20.8 S 8 11 1009.0 - 0.0 - - 10 - - - -
24/09:30am 20.6 SSW 9 13 1009.2 - 0.0 - - 10 - - - -
24/09:00am 20.0 SW 10 14 1009.2 - 0.0 - - 10 - - - -
24/08:30am 19.3 SW 10 14 1009.1 - 0.0 - - 10 - - - -
24/08:00am 18.3 SW 11 13 1009.1 - 0.0 - - 10 - - - -
24/07:30am 16.9 SW 7 10 1008.7 - 0.0 - - 10 - - - -
24/07:00am 15.2 SW 8 10 1008.6 - 0.0 - - 10 - - - -
24/06:30am 15.3 WSW 7 8 1008.2 - 0.0 - - 10 - - - -
24/06:00am 15.7 SW 7 9 1008.2 - 0.0 - - 10 - - - -
24/05:30am 16.4 SW 8 11 1008.0 - 0.0 - Partly cloudy 10 - - - -
24/05:00am 16.8 SW 9 12 1008.0 - 0.0 - - 10 - - - -
24/04:30am 17.2 SW 9 12 1008.1 - 0.0 - Partly cloudy 10 - - - -
24/04:00am 17.1 SW 9 11 1008.1 - 0.0 - Partly cloudy 10 - - - -
24/03:30am 17.1 SW 8 10 1008.2 - 0.0 - Partly cloudy 10 - - - -
24/03:00am 17.0 SW 7 10 1008.3 - 0.0 - Mostly clear 10 - - - -
24/02:30am 17.2 SW 8 10 1008.5 - 0.0 - - 10 - - - -
24/02:00am 17.4 SW 7 9 1008.7 - 0.0 - Partly cloudy 10 - - - -
24/01:30am 17.6 SW 7 9 1009.1 - 0.0 - Partly cloudy 10 - - - -
24/01:00am 17.8 SW 7 9 1009.3 - 0.0 - Partly cloudy 10 - - - -
24/12:30am 18.5 SW 8 10 1009.6 - 0.0 - - 10 - - - -
24/12:00am 18.7 SSW 8 11 1009.6 - 0.0 - - 10 - - - -
 
Date/Time
CDT
Temp

°C
Wind Pressure Rain
since 9am
mm
Weather Cloud Vis
km
Sea
Height
m
Swell
Dir
 
Speed
knots
Gust
knots
hPa Trend Height
m
Period
s
Dir
23/11:30pm 19.0 SSW 11 13 1009.5 - 0.0 - - 10 - - - -
23/11:00pm 19.3 SSW 12 16 1009.6 - 0.0 - - 10 - - - -
23/10:30pm 19.5 SSW 11 14 1009.5 - 0.0 - - 10 - - - -
23/10:00pm 19.9 SSW 11 15 1009.2 - 0.0 - - 10 - - - -
23/09:30pm 20.5 SSW 15 21 1008.7 - 0.0 - - 10 - - - -
23/09:00pm 20.5 SSW 16 22 1008.3 - 0.0 - - 10 - - - -
23/08:30pm 20.8 SSW 17 23 1008.1 - 0.0 - - 10 - - - -
23/08:00pm 21.5 SSW 17 23 1007.7 - 0.0 - - 10 - - - -
23/07:30pm 21.9 SSW 20 28 1007.3 - 0.0 - - 10 - - - -
23/07:00pm 22.4 S 21 27 1007.3 - 0.0 - - 10 - - - -
23/06:30pm 23.2 S 21 27 1007.4 - 0.0 - - 10 - - - -
23/06:00pm 23.0 S 21 25 1007.3 - 0.0 - - 10 - - - -
23/05:30pm 23.1 S 21 27 1007.3 - 0.0 - - 10 - - - -
23/05:00pm 23.4 S 20 27 1007.5 - 0.0 - - 10 - - - -
23/04:30pm 24.0 SSW 21 26 1007.6 - 0.0 - - 10 - - - -
23/04:00pm 24.0 S 19 24 1007.8 - 0.0 - - 10 - - - -
23/03:30pm 24.8 S 17 22 1008.0 - 0.0 - - 10 - - - -
23/03:00pm 24.6 SSW 17 21 1008.3 - 0.0 - Mostly clear 10 - - - -
23/02:30pm 24.0 SSW 18 22 1008.5 - 0.0 - Partly cloudy 10 - - - -
23/02:00pm 24.3 SSW 20 27 1009.0 - 0.0 - - 10 - - - -
23/01:30pm 23.6 S 19 24 1009.4 - 0.0 - Partly cloudy 10 - - - -
23/01:00pm 23.3 S 19 25 1009.2 - 0.0 - Partly cloudy 10 - - - -
23/12:30pm 23.5 S 18 25 1009.3 - 0.0 - Partly cloudy 10 - - - -
23/12:00pm 23.6 S 16 22 1009.2 - 0.0 - - 10 - - - -
23/11:30am 24.2 S 15 21 1009.3 - 0.0 - - 10 - - - -
23/11:00am 23.0 S 15 20 1009.5 - 0.0 - - 10 - - - -
23/10:30am 23.0 S 15 20 1009.4 - 0.0 - - 10 - - - -
23/10:00am 22.4 S 14 19 1009.6 - 0.0 - - 10 - - - -
23/09:30am 22.0 S 13 17 1009.6 - 0.0 - - 10 - - - -
23/09:00am 22.1 S 13 17 1009.4 - 0.0 - Partly cloudy 10 - - - -
23/08:30am 22.1 S 13 17 1009.3 - 0.0 - - 10 - - - -
23/08:00am 21.2 S 10 15 1008.9 - 0.0 - - 10 - - - -
23/07:30am 20.0 SSW 10 13 1008.9 - 0.0 - - 10 - - - -
23/07:00am 19.8 SSW 12 16 1008.6 - 0.0 - - 10 - - - -
23/06:30am 19.4 SSW 10 13 1008.1 - 0.0 - - 10 - - - -
23/06:00am 19.2 SW 8 11 1007.7 - 0.0 - Mostly clear 10 - - - -
23/05:30am 19.4 SW 8 11 1007.6 - 0.0 - - 10 - - - -
23/05:00am 19.5 SSW 9 11 1007.3 - 0.0 - - 10 - - - -
23/04:30am 19.7 SSW 9 12 1007.3 - 0.0 - - 10 - - - -
23/04:00am 19.9 SSW 7 9 1007.4 - 0.0 - - 10 - - - -
23/03:30am 20.0 SSW 8 11 1007.2 - 0.0 - - 10 - - - -
23/03:00am 20.4 SSW 9 12 1007.4 - 0.0 - - 10 - - - -
23/02:30am 20.8 SSW 11 15 1007.3 - 0.0 - - 10 - - - -
23/02:00am 21.2 SSW 13 16 1007.6 - 0.0 - - 10 - - - -
23/01:30am 22.0 SSW 15 20 1007.6 - 0.0 - - 10 - - - -
23/01:00am 22.1 SSW 12 16 1007.6 - 0.0 - - 10 - - - -
23/12:30am 22.7 SSW 13 17 1007.5 - 0.0 - - 10 - - - -
23/12:00am 23.0 SSW 9 12 1007.4 - 0.0 - Mostly cloudy 10 - - - -
 
Date/Time
CDT
Temp

°C
Wind Pressure Rain
since 9am
mm
Weather Cloud Vis
km
Sea
Height
m
Swell
Dir
 
Speed
knots
Gust
knots
hPa Trend Height
m
Period
s
Dir
22/11:30pm 22.9 SSW 7 9 1007.2 - 0.0 - - 10 - - - -
22/11:00pm 22.6 SW 6 8 1007.1 - 0.0 - - 10 - - - -
22/10:30pm 22.3 WSW 4 5 1007.1 - 0.0 - - 10 - - - -
22/10:00pm 23.6 ENE 4 5 1006.9 - 0.0 - - 10 - - - -
22/09:30pm 23.3 SSE 2 4 1007.0 - 0.0 - - 10 - - - -
22/09:00pm 23.6 SE 4 5 1006.6 - 0.0 - - 10 - - - -

Other Formats:

Comma delimited format used in spreadsheet applications
http://www.bom.gov.au/fwo/IDS60701/IDS60701.95664.axf

JavaScript Object Notation format (JSON) in row-major order
http://www.bom.gov.au/fwo/IDS60701/IDS60701.95664.json